sensor_id;sensor_type;location;lat;lon;timestamp;P1;durP1;ratioP1;P2;durP2;ratioP2
12603;SDS011;6367;52.508;13.284;2023-02-28T00:00:27;4.10;;;2.83;;
12603;SDS011;6367;52.508;13.284;2023-02-28T00:02:53;6.70;;;3.40;;
12603;SDS011;6367;52.508;13.284;2023-02-28T00:05:20;5.07;;;3.00;;
12603;SDS011;6367;52.508;13.284;2023-02-28T00:07:46;5.83;;;4.40;;
12603;SDS011;6367;52.508;13.284;2023-02-28T00:10:13;4.93;;;3.40;;
12603;SDS011;6367;52.508;13.284;2023-02-28T00:12:49;5.10;;;3.10;;
12603;SDS011;6367;52.508;13.284;2023-02-28T00:15:15;3.53;;;2.57;;
12603;SDS011;6367;52.508;13.284;2023-02-28T00:17:42;5.30;;;3.00;;
12603;SDS011;6367;52.508;13.284;2023-02-28T00:20:08;4.83;;;2.93;;
12603;SDS011;6367;52.508;13.284;2023-02-28T00:22:38;5.10;;;2.80;;
12603;SDS011;6367;52.508;13.284;2023-02-28T00:25:05;4.67;;;2.93;;
12603;SDS011;6367;52.508;13.284;2023-02-28T00:27:32;5.57;;;3.27;;
12603;SDS011;6367;52.508;13.284;2023-02-28T00:29:58;4.47;;;3.57;;
12603;SDS011;6367;52.508;13.284;2023-02-28T00:32:26;3.97;;;3.03;;
12603;SDS011;6367;52.508;13.284;2023-02-28T00:34:52;5.33;;;3.80;;
12603;SDS011;6367;52.508;13.284;2023-02-28T00:37:17;3.70;;;2.93;;
12603;SDS011;6367;52.508;13.284;2023-02-28T00:39:43;5.83;;;3.20;;
12603;SDS011;6367;52.508;13.284;2023-02-28T00:42:09;5.70;;;3.23;;
12603;SDS011;6367;52.508;13.284;2023-02-28T00:44:34;4.90;;;3.67;;
12603;SDS011;6367;52.508;13.284;2023-02-28T00:47:00;5.13;;;3.53;;
12603;SDS011;6367;52.508;13.284;2023-02-28T00:49:26;4.23;;;3.40;;
12603;SDS011;6367;52.508;13.284;2023-02-28T00:51:52;6.83;;;3.20;;
12603;SDS011;6367;52.508;13.284;2023-02-28T00:54:19;7.03;;;3.90;;
12603;SDS011;6367;52.508;13.284;2023-02-28T00:56:45;5.67;;;3.40;;
12603;SDS011;6367;52.508;13.284;2023-02-28T00:59:12;5.63;;;3.40;;
12603;SDS011;6367;52.508;13.284;2023-02-28T01:01:42;4.90;;;3.77;;
12603;SDS011;6367;52.508;13.284;2023-02-28T01:04:08;4.97;;;3.60;;
12603;SDS011;6367;52.508;13.284;2023-02-28T01:06:34;4.40;;;3.07;;
12603;SDS011;6367;52.508;13.284;2023-02-28T01:09:01;6.27;;;3.90;;
12603;SDS011;6367;52.508;13.284;2023-02-28T01:11:27;6.40;;;3.63;;
12603;SDS011;6367;52.508;13.284;2023-02-28T01:13:52;6.33;;;3.33;;
12603;SDS011;6367;52.508;13.284;2023-02-28T01:16:18;5.23;;;3.80;;
12603;SDS011;6367;52.508;13.284;2023-02-28T01:18:44;5.47;;;3.80;;
12603;SDS011;6367;52.508;13.284;2023-02-28T01:21:11;5.03;;;3.30;;
12603;SDS011;6367;52.508;13.284;2023-02-28T01:23:40;4.57;;;3.33;;
12603;SDS011;6367;52.508;13.284;2023-02-28T01:26:13;4.30;;;3.23;;
12603;SDS011;6367;52.508;13.284;2023-02-28T01:28:41;3.97;;;2.97;;
12603;SDS011;6367;52.508;13.284;2023-02-28T01:31:07;5.80;;;3.17;;
12603;SDS011;6367;52.508;13.284;2023-02-28T01:33:34;7.43;;;3.90;;
12603;SDS011;6367;52.508;13.284;2023-02-28T01:36:00;6.13;;;3.57;;
12603;SDS011;6367;52.508;13.284;2023-02-28T01:38:27;5.50;;;2.93;;
12603;SDS011;6367;52.508;13.284;2023-02-28T01:40:53;4.03;;;3.17;;
12603;SDS011;6367;52.508;13.284;2023-02-28T01:43:20;4.33;;;3.60;;
12603;SDS011;6367;52.508;13.284;2023-02-28T01:45:52;4.67;;;2.70;;
12603;SDS011;6367;52.508;13.284;2023-02-28T01:48:19;3.63;;;3.30;;
12603;SDS011;6367;52.508;13.284;2023-02-28T01:50:50;5.67;;;3.70;;
12603;SDS011;6367;52.508;13.284;2023-02-28T01:53:18;3.43;;;3.13;;
12603;SDS011;6367;52.508;13.284;2023-02-28T01:55:49;3.63;;;3.10;;
12603;SDS011;6367;52.508;13.284;2023-02-28T01:58:18;4.83;;;3.47;;
12603;SDS011;6367;52.508;13.284;2023-02-28T02:00:44;4.40;;;2.93;;
12603;SDS011;6367;52.508;13.284;2023-02-28T02:03:11;6.77;;;3.60;;
12603;SDS011;6367;52.508;13.284;2023-02-28T02:05:39;3.90;;;3.20;;
12603;SDS011;6367;52.508;13.284;2023-02-28T02:08:09;10.20;;;3.97;;
12603;SDS011;6367;52.508;13.284;2023-02-28T02:10:47;4.60;;;3.20;;
12603;SDS011;6367;52.508;13.284;2023-02-28T02:24:44;4.40;;;3.20;;
12603;SDS011;6367;52.508;13.284;2023-02-28T02:37:53;4.27;;;3.40;;
12603;SDS011;6367;52.508;13.284;2023-02-28T02:40:38;4.27;;;3.30;;
12603;SDS011;6367;52.508;13.284;2023-02-28T02:43:29;4.87;;;3.70;;
12603;SDS011;6367;52.508;13.284;2023-02-28T02:46:11;4.30;;;3.30;;
12603;SDS011;6367;52.508;13.284;2023-02-28T02:48:40;6.50;;;4.10;;
12603;SDS011;6367;52.508;13.284;2023-02-28T02:51:18;4.40;;;3.83;;
12603;SDS011;6367;52.508;13.284;2023-02-28T02:53:48;5.00;;;3.37;;
12603;SDS011;6367;52.508;13.284;2023-02-28T02:56:19;8.10;;;4.57;;
12603;SDS011;6367;52.508;13.284;2023-02-28T02:58:49;4.77;;;3.70;;
12603;SDS011;6367;52.508;13.284;2023-02-28T03:01:19;5.50;;;3.87;;
12603;SDS011;6367;52.508;13.284;2023-02-28T03:03:54;5.93;;;3.60;;
12603;SDS011;6367;52.508;13.284;2023-02-28T03:06:41;5.73;;;3.43;;
12603;SDS011;6367;52.508;13.284;2023-02-28T03:09:06;4.90;;;4.17;;
12603;SDS011;6367;52.508;13.284;2023-02-28T03:11:32;4.87;;;4.27;;
12603;SDS011;6367;52.508;13.284;2023-02-28T03:14:08;4.37;;;3.40;;
12603;SDS011;6367;52.508;13.284;2023-02-28T03:20:01;5.00;;;4.00;;
12603;SDS011;6367;52.508;13.284;2023-02-28T03:25:27;4.27;;;3.50;;
12603;SDS011;6367;52.508;13.284;2023-02-28T03:28:18;3.93;;;3.17;;
12603;SDS011;6367;52.508;13.284;2023-02-28T03:30:56;6.10;;;3.93;;
12603;SDS011;6367;52.508;13.284;2023-02-28T03:33:30;4.40;;;3.50;;
12603;SDS011;6367;52.508;13.284;2023-02-28T03:36:12;7.30;;;4.60;;
12603;SDS011;6367;52.508;13.284;2023-02-28T03:41:19;4.70;;;3.73;;
12603;SDS011;6367;52.508;13.284;2023-02-28T03:44:00;7.77;;;3.90;;
12603;SDS011;6367;52.508;13.284;2023-02-28T03:46:32;5.43;;;4.00;;
12603;SDS011;6367;52.508;13.284;2023-02-28T03:49:11;4.57;;;3.70;;
12603;SDS011;6367;52.508;13.284;2023-02-28T03:51:41;6.33;;;3.40;;
12603;SDS011;6367;52.508;13.284;2023-02-28T03:54:51;5.33;;;4.33;;
12603;SDS011;6367;52.508;13.284;2023-02-28T03:57:02;5.50;;;4.40;;
12603;SDS011;6367;52.508;13.284;2023-02-28T03:59:52;9.80;;;3.90;;
12603;SDS011;6367;52.508;13.284;2023-02-28T04:02:24;6.93;;;4.27;;
12603;SDS011;6367;52.508;13.284;2023-02-28T04:04:49;6.97;;;4.13;;
12603;SDS011;6367;52.508;13.284;2023-02-28T04:07:16;4.90;;;3.90;;
12603;SDS011;6367;52.508;13.284;2023-02-28T04:09:42;5.73;;;4.20;;
12603;SDS011;6367;52.508;13.284;2023-02-28T04:12:08;5.40;;;4.37;;
12603;SDS011;6367;52.508;13.284;2023-02-28T04:14:34;6.37;;;4.47;;
12603;SDS011;6367;52.508;13.284;2023-02-28T04:17:00;4.93;;;3.90;;
12603;SDS011;6367;52.508;13.284;2023-02-28T04:19:25;5.17;;;3.70;;
12603;SDS011;6367;52.508;13.284;2023-02-28T04:21:51;7.17;;;4.60;;
12603;SDS011;6367;52.508;13.284;2023-02-28T04:24:22;5.10;;;3.73;;
12603;SDS011;6367;52.508;13.284;2023-02-28T04:26:50;5.40;;;4.03;;
12603;SDS011;6367;52.508;13.284;2023-02-28T04:29:22;6.17;;;5.03;;
12603;SDS011;6367;52.508;13.284;2023-02-28T04:31:50;6.30;;;4.33;;
12603;SDS011;6367;52.508;13.284;2023-02-28T04:34:18;4.90;;;4.27;;
12603;SDS011;6367;52.508;13.284;2023-02-28T04:36:44;4.53;;;3.97;;
12603;SDS011;6367;52.508;13.284;2023-02-28T04:39:10;7.77;;;5.07;;
12603;SDS011;6367;52.508;13.284;2023-02-28T04:41:37;4.80;;;3.97;;
12603;SDS011;6367;52.508;13.284;2023-02-28T04:44:02;6.03;;;4.40;;
12603;SDS011;6367;52.508;13.284;2023-02-28T04:46:28;8.10;;;4.00;;
12603;SDS011;6367;52.508;13.284;2023-02-28T04:48:55;7.00;;;4.60;;
12603;SDS011;6367;52.508;13.284;2023-02-28T04:51:21;5.53;;;3.80;;
12603;SDS011;6367;52.508;13.284;2023-02-28T04:53:47;6.00;;;4.23;;
12603;SDS011;6367;52.508;13.284;2023-02-28T04:56:13;6.03;;;4.50;;
12603;SDS011;6367;52.508;13.284;2023-02-28T04:58:41;7.03;;;4.00;;
12603;SDS011;6367;52.508;13.284;2023-02-28T05:01:19;8.13;;;4.43;;
12603;SDS011;6367;52.508;13.284;2023-02-28T05:03:50;6.70;;;4.50;;
12603;SDS011;6367;52.508;13.284;2023-02-28T05:06:17;5.13;;;4.63;;
12603;SDS011;6367;52.508;13.284;2023-02-28T05:08:44;6.10;;;4.77;;
12603;SDS011;6367;52.508;13.284;2023-02-28T05:11:14;6.13;;;4.33;;
12603;SDS011;6367;52.508;13.284;2023-02-28T05:13:42;7.47;;;5.20;;
12603;SDS011;6367;52.508;13.284;2023-02-28T05:16:08;5.00;;;4.00;;
12603;SDS011;6367;52.508;13.284;2023-02-28T05:18:34;7.27;;;4.60;;
12603;SDS011;6367;52.508;13.284;2023-02-28T05:20:59;6.27;;;4.57;;
12603;SDS011;6367;52.508;13.284;2023-02-28T05:23:28;7.17;;;4.67;;
12603;SDS011;6367;52.508;13.284;2023-02-28T05:25:54;8.60;;;5.63;;
12603;SDS011;6367;52.508;13.284;2023-02-28T05:28:20;6.50;;;4.60;;
12603;SDS011;6367;52.508;13.284;2023-02-28T05:30:46;5.30;;;4.60;;
12603;SDS011;6367;52.508;13.284;2023-02-28T05:33:12;6.43;;;4.60;;
12603;SDS011;6367;52.508;13.284;2023-02-28T05:35:39;6.33;;;4.67;;
12603;SDS011;6367;52.508;13.284;2023-02-28T05:38:05;5.37;;;4.03;;
12603;SDS011;6367;52.508;13.284;2023-02-28T05:40:31;9.23;;;5.13;;
12603;SDS011;6367;52.508;13.284;2023-02-28T05:42:57;5.97;;;4.50;;
12603;SDS011;6367;52.508;13.284;2023-02-28T05:45:22;6.00;;;4.90;;
12603;SDS011;6367;52.508;13.284;2023-02-28T05:47:48;5.00;;;4.40;;
12603;SDS011;6367;52.508;13.284;2023-02-28T05:50:14;5.83;;;4.37;;
12603;SDS011;6367;52.508;13.284;2023-02-28T05:52:40;6.40;;;4.50;;
12603;SDS011;6367;52.508;13.284;2023-02-28T05:55:05;8.17;;;5.40;;
12603;SDS011;6367;52.508;13.284;2023-02-28T05:57:32;7.23;;;5.20;;
12603;SDS011;6367;52.508;13.284;2023-02-28T05:59:57;6.03;;;4.90;;
12603;SDS011;6367;52.508;13.284;2023-02-28T06:02:23;5.27;;;4.40;;
12603;SDS011;6367;52.508;13.284;2023-02-28T06:04:48;8.00;;;4.90;;
12603;SDS011;6367;52.508;13.284;2023-02-28T06:07:14;5.63;;;4.37;;
12603;SDS011;6367;52.508;13.284;2023-02-28T06:09:40;7.17;;;4.90;;
12603;SDS011;6367;52.508;13.284;2023-02-28T06:12:06;9.77;;;4.93;;
12603;SDS011;6367;52.508;13.284;2023-02-28T06:14:34;6.30;;;4.70;;
12603;SDS011;6367;52.508;13.284;2023-02-28T06:17:00;9.67;;;5.87;;
12603;SDS011;6367;52.508;13.284;2023-02-28T06:19:26;10.20;;;5.10;;
12603;SDS011;6367;52.508;13.284;2023-02-28T06:21:52;6.27;;;5.23;;
12603;SDS011;6367;52.508;13.284;2023-02-28T06:24:22;10.50;;;5.60;;
12603;SDS011;6367;52.508;13.284;2023-02-28T06:26:50;8.37;;;5.67;;
12603;SDS011;6367;52.508;13.284;2023-02-28T06:29:16;7.73;;;5.80;;
12603;SDS011;6367;52.508;13.284;2023-02-28T06:31:46;10.87;;;5.63;;
12603;SDS011;6367;52.508;13.284;2023-02-28T06:34:12;8.50;;;5.20;;
12603;SDS011;6367;52.508;13.284;2023-02-28T06:36:38;9.00;;;6.03;;
12603;SDS011;6367;52.508;13.284;2023-02-28T06:39:05;10.40;;;6.10;;
12603;SDS011;6367;52.508;13.284;2023-02-28T06:41:32;11.30;;;6.37;;
12603;SDS011;6367;52.508;13.284;2023-02-28T06:44:12;9.87;;;6.70;;
12603;SDS011;6367;52.508;13.284;2023-02-28T06:46:40;9.40;;;6.17;;
12603;SDS011;6367;52.508;13.284;2023-02-28T06:49:06;14.53;;;7.33;;
12603;SDS011;6367;52.508;13.284;2023-02-28T06:51:36;11.37;;;7.33;;
12603;SDS011;6367;52.508;13.284;2023-02-28T06:54:05;8.90;;;6.00;;
12603;SDS011;6367;52.508;13.284;2023-02-28T06:56:34;10.10;;;6.60;;
12603;SDS011;6367;52.508;13.284;2023-02-28T06:59:00;9.60;;;6.10;;
12603;SDS011;6367;52.508;13.284;2023-02-28T07:01:26;9.50;;;5.97;;
12603;SDS011;6367;52.508;13.284;2023-02-28T07:03:53;9.53;;;6.53;;
12603;SDS011;6367;52.508;13.284;2023-02-28T07:06:19;9.17;;;6.80;;
12603;SDS011;6367;52.508;13.284;2023-02-28T07:08:49;8.83;;;6.33;;
12603;SDS011;6367;52.508;13.284;2023-02-28T07:11:18;11.50;;;5.97;;
12603;SDS011;6367;52.508;13.284;2023-02-28T07:13:46;8.30;;;5.70;;
12603;SDS011;6367;52.508;13.284;2023-02-28T07:16:12;8.53;;;5.60;;
12603;SDS011;6367;52.508;13.284;2023-02-28T07:18:44;8.30;;;5.50;;
12603;SDS011;6367;52.508;13.284;2023-02-28T07:21:10;7.93;;;5.67;;
12603;SDS011;6367;52.508;13.284;2023-02-28T07:23:36;7.00;;;5.00;;
12603;SDS011;6367;52.508;13.284;2023-02-28T07:26:03;8.70;;;5.80;;
12603;SDS011;6367;52.508;13.284;2023-02-28T07:28:32;6.90;;;5.33;;
12603;SDS011;6367;52.508;13.284;2023-02-28T07:31:07;8.77;;;5.73;;
12603;SDS011;6367;52.508;13.284;2023-02-28T07:33:34;7.97;;;5.90;;
12603;SDS011;6367;52.508;13.284;2023-02-28T07:36:04;7.03;;;5.13;;
12603;SDS011;6367;52.508;13.284;2023-02-28T07:38:33;7.53;;;5.37;;
12603;SDS011;6367;52.508;13.284;2023-02-28T07:41:03;7.27;;;5.80;;
12603;SDS011;6367;52.508;13.284;2023-02-28T07:43:33;8.30;;;6.27;;
12603;SDS011;6367;52.508;13.284;2023-02-28T07:46:09;8.13;;;5.83;;
12603;SDS011;6367;52.508;13.284;2023-02-28T07:48:36;9.00;;;6.23;;
12603;SDS011;6367;52.508;13.284;2023-02-28T07:51:02;8.53;;;6.90;;
12603;SDS011;6367;52.508;13.284;2023-02-28T07:53:28;8.77;;;6.10;;
12603;SDS011;6367;52.508;13.284;2023-02-28T07:55:58;7.87;;;6.00;;
12603;SDS011;6367;52.508;13.284;2023-02-28T07:58:27;7.90;;;5.60;;
12603;SDS011;6367;52.508;13.284;2023-02-28T08:00:53;5.87;;;4.07;;
12603;SDS011;6367;52.508;13.284;2023-02-28T08:03:20;6.00;;;3.30;;
12603;SDS011;6367;52.508;13.284;2023-02-28T08:05:47;4.53;;;2.90;;
12603;SDS011;6367;52.508;13.284;2023-02-28T08:08:17;3.90;;;3.40;;
12603;SDS011;6367;52.508;13.284;2023-02-28T08:10:43;6.33;;;4.00;;
12603;SDS011;6367;52.508;13.284;2023-02-28T08:13:12;6.20;;;4.50;;
12603;SDS011;6367;52.508;13.284;2023-02-28T08:15:37;7.60;;;4.17;;
12603;SDS011;6367;52.508;13.284;2023-02-28T08:18:05;4.40;;;2.60;;
12603;SDS011;6367;52.508;13.284;2023-02-28T08:20:30;3.00;;;2.17;;
12603;SDS011;6367;52.508;13.284;2023-02-28T08:22:56;3.43;;;2.10;;
12603;SDS011;6367;52.508;13.284;2023-02-28T08:25:24;4.10;;;2.20;;
12603;SDS011;6367;52.508;13.284;2023-02-28T08:27:51;2.47;;;1.90;;
12603;SDS011;6367;52.508;13.284;2023-02-28T08:30:17;4.63;;;2.33;;
12603;SDS011;6367;52.508;13.284;2023-02-28T08:32:43;3.10;;;1.80;;
12603;SDS011;6367;52.508;13.284;2023-02-28T08:35:08;4.00;;;2.23;;
12603;SDS011;6367;52.508;13.284;2023-02-28T08:37:37;2.97;;;2.20;;
12603;SDS011;6367;52.508;13.284;2023-02-28T08:40:03;3.37;;;2.00;;
12603;SDS011;6367;52.508;13.284;2023-02-28T08:42:29;2.00;;;1.60;;
12603;SDS011;6367;52.508;13.284;2023-02-28T08:44:56;2.73;;;1.33;;
12603;SDS011;6367;52.508;13.284;2023-02-28T08:47:22;2.13;;;1.73;;
12603;SDS011;6367;52.508;13.284;2023-02-28T08:49:48;2.27;;;1.83;;
12603;SDS011;6367;52.508;13.284;2023-02-28T08:52:16;2.03;;;1.83;;
12603;SDS011;6367;52.508;13.284;2023-02-28T08:54:42;1.83;;;1.73;;
12603;SDS011;6367;52.508;13.284;2023-02-28T08:57:07;5.03;;;2.40;;
12603;SDS011;6367;52.508;13.284;2023-02-28T08:59:34;3.37;;;1.93;;
12603;SDS011;6367;52.508;13.284;2023-02-28T09:02:00;1.67;;;1.43;;
12603;SDS011;6367;52.508;13.284;2023-02-28T09:04:25;1.70;;;1.60;;
12603;SDS011;6367;52.508;13.284;2023-02-28T09:06:51;3.57;;;1.60;;
12603;SDS011;6367;52.508;13.284;2023-02-28T09:09:17;2.70;;;1.90;;
12603;SDS011;6367;52.508;13.284;2023-02-28T09:11:42;2.50;;;2.07;;
12603;SDS011;6367;52.508;13.284;2023-02-28T09:14:11;2.13;;;1.90;;
12603;SDS011;6367;52.508;13.284;2023-02-28T09:16:37;3.60;;;1.90;;
12603;SDS011;6367;52.508;13.284;2023-02-28T09:19:05;3.83;;;1.80;;
12603;SDS011;6367;52.508;13.284;2023-02-28T09:21:30;2.07;;;1.80;;
12603;SDS011;6367;52.508;13.284;2023-02-28T09:23:56;2.77;;;1.80;;
12603;SDS011;6367;52.508;13.284;2023-02-28T09:26:25;2.00;;;1.80;;
12603;SDS011;6367;52.508;13.284;2023-02-28T09:28:52;1.97;;;1.77;;
12603;SDS011;6367;52.508;13.284;2023-02-28T09:31:22;3.20;;;1.97;;
12603;SDS011;6367;52.508;13.284;2023-02-28T09:33:50;3.63;;;2.03;;
12603;SDS011;6367;52.508;13.284;2023-02-28T09:36:17;2.13;;;1.70;;
12603;SDS011;6367;52.508;13.284;2023-02-28T09:38:43;2.03;;;1.83;;
12603;SDS011;6367;52.508;13.284;2023-02-28T09:41:14;2.03;;;1.73;;
12603;SDS011;6367;52.508;13.284;2023-02-28T09:43:46;2.60;;;1.80;;
12603;SDS011;6367;52.508;13.284;2023-02-28T09:48:56;2.27;;;1.90;;
12603;SDS011;6367;52.508;13.284;2023-02-28T09:51:37;1.80;;;1.60;;
12603;SDS011;6367;52.508;13.284;2023-02-28T09:54:19;2.17;;;1.97;;
12603;SDS011;6367;52.508;13.284;2023-02-28T09:56:51;3.57;;;1.90;;
12603;SDS011;6367;52.508;13.284;2023-02-28T10:05:29;2.00;;;1.80;;
12603;SDS011;6367;52.508;13.284;2023-02-28T10:10:43;3.40;;;1.83;;
12603;SDS011;6367;52.508;13.284;2023-02-28T10:13:21;2.20;;;1.63;;
12603;SDS011;6367;52.508;13.284;2023-02-28T10:16:06;2.03;;;1.83;;
12603;SDS011;6367;52.508;13.284;2023-02-28T10:21:44;4.93;;;1.77;;
12603;SDS011;6367;52.508;13.284;2023-02-28T10:27:01;2.73;;;2.23;;
12603;SDS011;6367;52.508;13.284;2023-02-28T10:29:42;2.97;;;2.27;;
12603;SDS011;6367;52.508;13.284;2023-02-28T10:32:11;2.80;;;2.17;;
12603;SDS011;6367;52.508;13.284;2023-02-28T10:34:40;3.53;;;2.07;;
12603;SDS011;6367;52.508;13.284;2023-02-28T10:37:06;3.17;;;1.90;;
12603;SDS011;6367;52.508;13.284;2023-02-28T10:39:36;2.90;;;2.37;;
12603;SDS011;6367;52.508;13.284;2023-02-28T10:42:05;3.97;;;2.60;;
12603;SDS011;6367;52.508;13.284;2023-02-28T10:44:46;4.27;;;2.80;;
12603;SDS011;6367;52.508;13.284;2023-02-28T10:47:16;5.67;;;2.50;;
12603;SDS011;6367;52.508;13.284;2023-02-28T10:49:48;3.20;;;2.40;;
12603;SDS011;6367;52.508;13.284;2023-02-28T10:52:36;3.90;;;3.10;;
12603;SDS011;6367;52.508;13.284;2023-02-28T10:55:21;2.50;;;2.30;;
12603;SDS011;6367;52.508;13.284;2023-02-28T10:57:55;3.60;;;2.47;;
12603;SDS011;6367;52.508;13.284;2023-02-28T11:00:24;2.97;;;2.20;;
12603;SDS011;6367;52.508;13.284;2023-02-28T11:02:50;6.33;;;2.87;;
12603;SDS011;6367;52.508;13.284;2023-02-28T11:05:27;2.13;;;1.90;;
12603;SDS011;6367;52.508;13.284;2023-02-28T11:08:02;4.77;;;2.60;;
12603;SDS011;6367;52.508;13.284;2023-02-28T11:10:56;3.17;;;2.63;;
12603;SDS011;6367;52.508;13.284;2023-02-28T11:13:32;4.10;;;2.80;;
12603;SDS011;6367;52.508;13.284;2023-02-28T11:15:59;3.27;;;2.90;;
12603;SDS011;6367;52.508;13.284;2023-02-28T11:21:06;4.33;;;3.00;;
12603;SDS011;6367;52.508;13.284;2023-02-28T11:23:35;3.97;;;2.47;;
12603;SDS011;6367;52.508;13.284;2023-02-28T11:26:05;4.13;;;2.53;;
12603;SDS011;6367;52.508;13.284;2023-02-28T11:28:41;2.90;;;2.20;;
12603;SDS011;6367;52.508;13.284;2023-02-28T11:33:49;2.70;;;2.30;;
12603;SDS011;6367;52.508;13.284;2023-02-28T11:38:56;2.47;;;2.13;;
12603;SDS011;6367;52.508;13.284;2023-02-28T11:44:28;3.73;;;2.50;;
12603;SDS011;6367;52.508;13.284;2023-02-28T11:49:49;4.00;;;2.50;;
12603;SDS011;6367;52.508;13.284;2023-02-28T11:52:21;5.10;;;2.83;;
12603;SDS011;6367;52.508;13.284;2023-02-28T11:55:46;2.73;;;2.10;;
12603;SDS011;6367;52.508;13.284;2023-02-28T12:09:01;4.47;;;2.50;;
12603;SDS011;6367;52.508;13.284;2023-02-28T12:11:38;2.90;;;2.30;;
12603;SDS011;6367;52.508;13.284;2023-02-28T12:25:00;3.50;;;2.40;;
12603;SDS011;6367;52.508;13.284;2023-02-28T12:27:56;3.30;;;2.90;;
12603;SDS011;6367;52.508;13.284;2023-02-28T12:30:25;3.70;;;2.70;;
12603;SDS011;6367;52.508;13.284;2023-02-28T12:33:12;3.50;;;2.50;;
12603;SDS011;6367;52.508;13.284;2023-02-28T12:35:43;4.60;;;2.77;;
12603;SDS011;6367;52.508;13.284;2023-02-28T12:38:28;4.13;;;3.07;;
12603;SDS011;6367;52.508;13.284;2023-02-28T12:43:50;4.03;;;3.50;;
12603;SDS011;6367;52.508;13.284;2023-02-28T12:46:29;3.97;;;2.70;;
12603;SDS011;6367;52.508;13.284;2023-02-28T12:49:12;5.17;;;4.00;;
12603;SDS011;6367;52.508;13.284;2023-02-28T12:52:02;4.97;;;3.20;;
12603;SDS011;6367;52.508;13.284;2023-02-28T12:54:32;4.40;;;3.60;;
12603;SDS011;6367;52.508;13.284;2023-02-28T12:59:45;3.53;;;2.83;;
12603;SDS011;6367;52.508;13.284;2023-02-28T13:04:47;6.70;;;3.30;;
12603;SDS011;6367;52.508;13.284;2023-02-28T13:07:46;4.80;;;3.20;;
12603;SDS011;6367;52.508;13.284;2023-02-28T13:10:45;3.20;;;2.90;;
12603;SDS011;6367;52.508;13.284;2023-02-28T13:13:18;5.30;;;3.27;;
12603;SDS011;6367;52.508;13.284;2023-02-28T13:16:01;3.93;;;3.10;;
12603;SDS011;6367;52.508;13.284;2023-02-28T13:18:28;4.17;;;3.20;;
12603;SDS011;6367;52.508;13.284;2023-02-28T13:21:07;9.10;;;4.70;;
12603;SDS011;6367;52.508;13.284;2023-02-28T13:34:27;4.93;;;3.20;;
12603;SDS011;6367;52.508;13.284;2023-02-28T13:37:30;7.10;;;3.20;;
12603;SDS011;6367;52.508;13.284;2023-02-28T13:39:45;7.20;;;3.40;;
12603;SDS011;6367;52.508;13.284;2023-02-28T13:48:14;4.80;;;3.00;;
12603;SDS011;6367;52.508;13.284;2023-02-28T13:50:22;3.67;;;2.80;;
12603;SDS011;6367;52.508;13.284;2023-02-28T13:58:43;2.53;;;2.30;;
12603;SDS011;6367;52.508;13.284;2023-02-28T14:11:30;3.57;;;3.20;;
12603;SDS011;6367;52.508;13.284;2023-02-28T14:14:03;6.20;;;3.40;;
12603;SDS011;6367;52.508;13.284;2023-02-28T14:16:40;3.67;;;2.43;;
12603;SDS011;6367;52.508;13.284;2023-02-28T14:19:11;3.50;;;2.83;;
12603;SDS011;6367;52.508;13.284;2023-02-28T14:21:46;3.80;;;2.50;;
12603;SDS011;6367;52.508;13.284;2023-02-28T14:36:06;4.57;;;3.10;;
12603;SDS011;6367;52.508;13.284;2023-02-28T14:38:51;4.67;;;3.70;;
12603;SDS011;6367;52.508;13.284;2023-02-28T14:43:58;4.90;;;3.20;;
12603;SDS011;6367;52.508;13.284;2023-02-28T14:46:46;3.70;;;3.30;;
12603;SDS011;6367;52.508;13.284;2023-02-28T14:49:16;3.90;;;3.27;;
12603;SDS011;6367;52.508;13.284;2023-02-28T14:51:43;3.40;;;2.90;;
12603;SDS011;6367;52.508;13.284;2023-02-28T14:54:12;5.43;;;3.20;;
12603;SDS011;6367;52.508;13.284;2023-02-28T14:56:42;3.60;;;2.63;;
12603;SDS011;6367;52.508;13.284;2023-02-28T14:59:23;8.40;;;3.83;;
12603;SDS011;6367;52.508;13.284;2023-02-28T15:01:51;4.13;;;3.00;;
12603;SDS011;6367;52.508;13.284;2023-02-28T15:04:25;3.20;;;2.90;;
12603;SDS011;6367;52.508;13.284;2023-02-28T15:07:12;6.37;;;3.50;;
12603;SDS011;6367;52.508;13.284;2023-02-28T15:09:39;5.70;;;3.07;;
12603;SDS011;6367;52.508;13.284;2023-02-28T15:12:06;5.53;;;3.10;;
12603;SDS011;6367;52.508;13.284;2023-02-28T15:14:32;5.03;;;2.90;;
12603;SDS011;6367;52.508;13.284;2023-02-28T15:17:05;5.10;;;2.67;;
12603;SDS011;6367;52.508;13.284;2023-02-28T15:19:37;3.50;;;2.93;;
12603;SDS011;6367;52.508;13.284;2023-02-28T15:22:16;3.27;;;2.73;;
12603;SDS011;6367;52.508;13.284;2023-02-28T15:24:46;4.67;;;3.13;;
12603;SDS011;6367;52.508;13.284;2023-02-28T15:27:19;2.73;;;2.43;;
12603;SDS011;6367;52.508;13.284;2023-02-28T15:29:53;5.43;;;3.03;;
12603;SDS011;6367;52.508;13.284;2023-02-28T15:32:29;3.47;;;3.03;;
12603;SDS011;6367;52.508;13.284;2023-02-28T15:34:57;3.20;;;2.87;;
12603;SDS011;6367;52.508;13.284;2023-02-28T15:40:23;3.37;;;2.67;;
12603;SDS011;6367;52.508;13.284;2023-02-28T15:42:59;4.00;;;2.57;;
12603;SDS011;6367;52.508;13.284;2023-02-28T15:45:38;4.60;;;2.73;;
12603;SDS011;6367;52.508;13.284;2023-02-28T15:48:14;3.37;;;3.07;;
12603;SDS011;6367;52.508;13.284;2023-02-28T15:50:43;5.00;;;3.60;;
12603;SDS011;6367;52.508;13.284;2023-02-28T15:53:15;4.50;;;3.30;;
12603;SDS011;6367;52.508;13.284;2023-02-28T15:55:44;5.73;;;2.77;;
12603;SDS011;6367;52.508;13.284;2023-02-28T15:58:11;4.43;;;3.00;;
12603;SDS011;6367;52.508;13.284;2023-02-28T16:00:38;5.53;;;3.10;;
12603;SDS011;6367;52.508;13.284;2023-02-28T16:03:23;3.70;;;2.83;;
12603;SDS011;6367;52.508;13.284;2023-02-28T16:08:54;4.00;;;3.10;;
12603;SDS011;6367;52.508;13.284;2023-02-28T16:11:20;2.80;;;2.20;;
12603;SDS011;6367;52.508;13.284;2023-02-28T16:13:47;4.30;;;3.20;;
12603;SDS011;6367;52.508;13.284;2023-02-28T16:16:15;3.33;;;3.00;;
12603;SDS011;6367;52.508;13.284;2023-02-28T16:18:42;2.93;;;2.40;;
12603;SDS011;6367;52.508;13.284;2023-02-28T16:21:08;4.10;;;3.00;;
12603;SDS011;6367;52.508;13.284;2023-02-28T16:23:34;3.13;;;2.83;;
12603;SDS011;6367;52.508;13.284;2023-02-28T16:25:59;4.37;;;3.23;;
12603;SDS011;6367;52.508;13.284;2023-02-28T16:28:28;3.97;;;2.90;;
12603;SDS011;6367;52.508;13.284;2023-02-28T16:31:00;4.70;;;2.77;;
12603;SDS011;6367;52.508;13.284;2023-02-28T16:33:29;6.90;;;2.97;;
12603;SDS011;6367;52.508;13.284;2023-02-28T16:35:55;3.20;;;2.90;;
12603;SDS011;6367;52.508;13.284;2023-02-28T16:38:20;5.10;;;3.40;;
12603;SDS011;6367;52.508;13.284;2023-02-28T16:40:48;3.50;;;2.93;;
12603;SDS011;6367;52.508;13.284;2023-02-28T16:43:16;5.87;;;3.23;;
12603;SDS011;6367;52.508;13.284;2023-02-28T16:45:44;4.60;;;4.20;;
12603;SDS011;6367;52.508;13.284;2023-02-28T16:48:11;4.70;;;3.43;;
12603;SDS011;6367;52.508;13.284;2023-02-28T16:50:39;4.17;;;3.47;;
12603;SDS011;6367;52.508;13.284;2023-02-28T16:53:05;4.60;;;3.60;;
12603;SDS011;6367;52.508;13.284;2023-02-28T16:55:30;4.93;;;3.73;;
12603;SDS011;6367;52.508;13.284;2023-02-28T16:57:57;5.87;;;3.63;;
12603;SDS011;6367;52.508;13.284;2023-02-28T17:00:24;6.20;;;3.77;;
12603;SDS011;6367;52.508;13.284;2023-02-28T17:02:52;3.23;;;2.93;;
12603;SDS011;6367;52.508;13.284;2023-02-28T17:05:19;5.70;;;3.30;;
12603;SDS011;6367;52.508;13.284;2023-02-28T17:07:45;4.63;;;3.30;;
12603;SDS011;6367;52.508;13.284;2023-02-28T17:10:16;4.53;;;3.60;;
12603;SDS011;6367;52.508;13.284;2023-02-28T17:12:44;5.47;;;3.53;;
12603;SDS011;6367;52.508;13.284;2023-02-28T17:15:10;4.50;;;3.63;;
12603;SDS011;6367;52.508;13.284;2023-02-28T17:17:37;4.67;;;4.17;;
12603;SDS011;6367;52.508;13.284;2023-02-28T17:20:04;5.40;;;4.20;;
12603;SDS011;6367;52.508;13.284;2023-02-28T17:22:31;4.80;;;3.77;;
12603;SDS011;6367;52.508;13.284;2023-02-28T17:24:57;7.03;;;4.13;;
12603;SDS011;6367;52.508;13.284;2023-02-28T17:27:23;6.40;;;4.07;;
12603;SDS011;6367;52.508;13.284;2023-02-28T17:29:50;6.67;;;3.90;;